sensor_id;sensor_type;location;lat;lon;timestamp;pressure;altitude;pressure_sealevel;temperature;humidity
66021;BME280;52789;59.980;30.346;2023-02-14T00:01:12;101279.19;;;0.57;89.54
66021;BME280;52789;59.980;30.346;2023-02-14T00:03:38;101283.69;;;0.55;89.89
66021;BME280;52789;59.980;30.346;2023-02-14T00:08:31;101290.22;;;0.48;90.04
66021;BME280;52789;59.980;30.346;2023-02-14T00:10:57;101296.28;;;0.48;90.39
66021;BME280;52789;59.980;30.346;2023-02-14T00:13:22;101299.59;;;0.52;90.04
66021;BME280;52789;59.980;30.346;2023-02-14T00:15:47;101301.91;;;0.58;89.90
66021;BME280;52789;59.980;30.346;2023-02-14T00:18:13;101313.22;;;0.58;89.90
66021;BME280;52789;59.980;30.346;2023-02-14T00:20:38;101312.19;;;0.61;89.50
66021;BME280;52789;59.980;30.346;2023-02-14T00:23:03;101312.19;;;0.61;90.22
66021;BME280;52789;59.980;30.346;2023-02-14T00:25:29;101316.59;;;0.60;89.96
66021;BME280;52789;59.980;30.346;2023-02-14T00:27:55;101319.88;;;0.64;89.81
66021;BME280;52789;59.980;30.346;2023-02-14T00:30:20;101328.16;;;0.72;89.59
66021;BME280;52789;59.980;30.346;2023-02-14T00:32:45;101334.84;;;0.78;88.97
66021;BME280;52789;59.980;30.346;2023-02-14T00:35:11;101344.13;;;0.83;88.88
66021;BME280;52789;59.980;30.346;2023-02-14T00:37:36;101350.00;;;0.88;89.31
66021;BME280;52789;59.980;30.346;2023-02-14T00:40:01;101351.50;;;0.92;88.92
66021;BME280;52789;59.980;30.346;2023-02-14T00:42:52;101352.25;;;0.95;88.63
66021;BME280;52789;59.980;30.346;2023-02-14T00:45:17;101366.03;;;0.98;88.70
66021;BME280;52789;59.980;30.346;2023-02-14T00:47:44;101367.81;;;0.98;88.18
66021;BME280;52789;59.980;30.346;2023-02-14T00:50:09;101369.34;;;1.02;88.57
66021;BME280;52789;59.980;30.346;2023-02-14T00:52:35;101374.75;;;0.99;88.51
66021;BME280;52789;59.980;30.346;2023-02-14T00:55:00;101380.00;;;0.99;88.22
66021;BME280;52789;59.980;30.346;2023-02-14T00:57:25;101387.69;;;1.02;88.34
66021;BME280;52789;59.980;30.346;2023-02-14T00:59:51;101384.03;;;1.04;88.48
66021;BME280;52789;59.980;30.346;2023-02-14T01:02:16;101390.13;;;1.05;88.19
66021;BME280;52789;59.980;30.346;2023-02-14T01:04:41;101393.69;;;1.04;88.41
66021;BME280;52789;59.980;30.346;2023-02-14T01:07:07;101393.88;;;1.01;88.00
66021;BME280;52789;59.980;30.346;2023-02-14T01:09:32;101409.53;;;1.02;88.21
66021;BME280;52789;59.980;30.346;2023-02-14T01:11:57;101408.00;;;0.98;88.26
66021;BME280;52789;59.980;30.346;2023-02-14T01:14:23;101406.22;;;0.99;88.44
66021;BME280;52789;59.980;30.346;2023-02-14T01:16:48;101414.19;;;0.97;88.53
66021;BME280;52789;59.980;30.346;2023-02-14T01:19:13;101424.84;;;0.94;88.58
66021;BME280;52789;59.980;30.346;2023-02-14T01:21:38;101422.47;;;0.89;88.86
66021;BME280;52789;59.980;30.346;2023-02-14T01:24:05;101436.53;;;0.88;88.93
66021;BME280;52789;59.980;30.346;2023-02-14T01:26:31;101441.78;;;0.88;88.96
66021;BME280;52789;59.980;30.346;2023-02-14T01:28:58;101444.53;;;0.85;89.02
66021;BME280;52789;59.980;30.346;2023-02-14T01:31:24;101447.00;;;0.88;88.98
66021;BME280;52789;59.980;30.346;2023-02-14T01:33:50;101452.00;;;0.93;89.00
66021;BME280;52789;59.980;30.346;2023-02-14T01:38:51;101457.84;;;0.98;88.34
66021;BME280;52789;59.980;30.346;2023-02-14T01:41:16;101448.19;;;0.99;88.07
66021;BME280;52789;59.980;30.346;2023-02-14T01:43:50;101460.38;;;1.00;87.86
66021;BME280;52789;59.980;30.346;2023-02-14T01:46:16;101469.00;;;1.02;87.91
66021;BME280;52789;59.980;30.346;2023-02-14T01:48:42;101482.88;;;1.04;87.41
66021;BME280;52789;59.980;30.346;2023-02-14T01:51:07;101485.34;;;1.07;87.60
66021;BME280;52789;59.980;30.346;2023-02-14T01:53:32;101492.34;;;1.06;87.45
66021;BME280;52789;59.980;30.346;2023-02-14T01:55:59;101496.75;;;1.06;87.35
66021;BME280;52789;59.980;30.346;2023-02-14T01:58:27;64449.00;;;-142.41;100.00
66021;BME280;52789;59.980;30.346;2023-02-14T02:00:53;64449.00;;;-142.41;100.00
66021;BME280;52789;59.980;30.346;2023-02-14T02:03:23;64449.00;;;-142.41;100.00
66021;BME280;52789;59.980;30.346;2023-02-14T02:05:51;64449.00;;;-142.41;100.00
66021;BME280;52789;59.980;30.346;2023-02-14T02:08:18;64449.00;;;-142.41;100.00
66021;BME280;52789;59.980;30.346;2023-02-14T02:10:43;64449.00;;;-142.41;100.00
66021;BME280;52789;59.980;30.346;2023-02-14T02:13:13;64449.00;;;-142.41;100.00
66021;BME280;52789;59.980;30.346;2023-02-14T02:15:57;64449.00;;;-142.41;100.00
66021;BME280;52789;59.980;30.346;2023-02-14T02:21:38;64449.00;;;-142.41;100.00
66021;BME280;52789;59.980;30.346;2023-02-14T02:23:48;64449.00;;;-142.41;100.00
66021;BME280;52789;59.980;30.346;2023-02-14T02:34:10;64449.00;;;-142.41;100.00
66021;BME280;52789;59.980;30.346;2023-02-14T02:36:45;64449.00;;;-142.41;100.00
66021;BME280;52789;59.980;30.346;2023-02-14T02:41:49;64449.00;;;-142.41;100.00
66021;BME280;52789;59.980;30.346;2023-02-14T02:44:26;64449.00;;;-142.41;100.00
66021;BME280;52789;59.980;30.346;2023-02-14T02:52:23;64449.00;;;-142.41;100.00
66021;BME280;52789;59.980;30.346;2023-02-14T02:55:15;64449.00;;;-142.41;100.00
66021;BME280;52789;59.980;30.346;2023-02-14T02:57:42;64449.00;;;-142.41;100.00
66021;BME280;52789;59.980;30.346;2023-02-14T03:00:10;64449.00;;;-142.41;100.00
66021;BME280;52789;59.980;30.346;2023-02-14T03:02:40;64449.00;;;-142.41;100.00
66021;BME280;52789;59.980;30.346;2023-02-14T03:05:26;64449.00;;;-142.41;100.00
66021;BME280;52789;59.980;30.346;2023-02-14T03:07:52;64449.00;;;-142.41;100.00
66021;BME280;52789;59.980;30.346;2023-02-14T03:10:22;64449.00;;;-142.41;100.00
66021;BME280;52789;59.980;30.346;2023-02-14T03:20:13;64449.00;;;-142.41;100.00
66021;BME280;52789;59.980;30.346;2023-02-14T03:27:43;64449.00;;;-142.41;100.00
66021;BME280;52789;59.980;30.346;2023-02-14T03:37:31;64449.00;;;-142.41;100.00
66021;BME280;52789;59.980;30.346;2023-02-14T03:40:33;64449.00;;;-142.41;100.00
66021;BME280;52789;59.980;30.346;2023-02-14T03:42:50;64449.00;;;-142.41;100.00
66021;BME280;52789;59.980;30.346;2023-02-14T03:45:39;64449.00;;;-142.41;100.00
66021;BME280;52789;59.980;30.346;2023-02-14T03:48:04;64449.00;;;-142.41;100.00
66021;BME280;52789;59.980;30.346;2023-02-14T03:50:32;64449.00;;;-142.41;100.00
66021;BME280;52789;59.980;30.346;2023-02-14T03:52:59;64449.00;;;-142.41;100.00
66021;BME280;52789;59.980;30.346;2023-02-14T03:55:26;64449.00;;;-142.41;100.00
66021;BME280;52789;59.980;30.346;2023-02-14T03:57:56;64449.00;;;-142.41;100.00
66021;BME280;52789;59.980;30.346;2023-02-14T04:00:23;64449.00;;;-142.41;100.00
66021;BME280;52789;59.980;30.346;2023-02-14T04:02:53;64449.00;;;-142.41;100.00
66021;BME280;52789;59.980;30.346;2023-02-14T04:05:21;64449.00;;;-142.41;100.00
66021;BME280;52789;59.980;30.346;2023-02-14T04:07:49;64449.00;;;-142.41;100.00
66021;BME280;52789;59.980;30.346;2023-02-14T04:10:14;64449.00;;;-142.41;100.00
66021;BME280;52789;59.980;30.346;2023-02-14T04:12:40;64449.00;;;-142.41;100.00
66021;BME280;52789;59.980;30.346;2023-02-14T04:15:06;64449.00;;;-142.41;100.00
66021;BME280;52789;59.980;30.346;2023-02-14T04:17:31;64449.00;;;-142.41;100.00
66021;BME280;52789;59.980;30.346;2023-02-14T04:20:15;64449.00;;;-142.41;100.00
66021;BME280;52789;59.980;30.346;2023-02-14T04:22:50;64449.00;;;-142.41;100.00
66021;BME280;52789;59.980;30.346;2023-02-14T04:25:16;64449.00;;;-142.41;100.00
66021;BME280;52789;59.980;30.346;2023-02-14T04:27:42;64449.00;;;-142.41;100.00
66021;BME280;52789;59.980;30.346;2023-02-14T04:30:08;64449.00;;;-142.41;100.00
66021;BME280;52789;59.980;30.346;2023-02-14T04:32:34;64449.00;;;-142.41;100.00
66021;BME280;52789;59.980;30.346;2023-02-14T04:34:59;64449.00;;;-142.41;100.00
66021;BME280;52789;59.980;30.346;2023-02-14T04:37:24;64449.00;;;-142.41;100.00
66021;BME280;52789;59.980;30.346;2023-02-14T04:39:50;64449.00;;;-142.41;100.00
66021;BME280;52789;59.980;30.346;2023-02-14T04:42:15;64449.00;;;-142.41;100.00
66021;BME280;52789;59.980;30.346;2023-02-14T04:44:40;64449.00;;;-142.41;100.00
66021;BME280;52789;59.980;30.346;2023-02-14T04:47:31;64449.00;;;-142.41;100.00
66021;BME280;52789;59.980;30.346;2023-02-14T04:49:56;64449.00;;;-142.41;100.00
66021;BME280;52789;59.980;30.346;2023-02-14T04:52:21;64449.00;;;-142.41;100.00
66021;BME280;52789;59.980;30.346;2023-02-14T04:54:47;64449.00;;;-142.41;100.00
66021;BME280;52789;59.980;30.346;2023-02-14T04:57:12;64449.00;;;-142.41;100.00
66021;BME280;52789;59.980;30.346;2023-02-14T04:59:38;64449.00;;;-142.41;100.00
66021;BME280;52789;59.980;30.346;2023-02-14T05:02:03;64449.00;;;-142.41;100.00
66021;BME280;52789;59.980;30.346;2023-02-14T05:04:29;64449.00;;;-142.41;100.00
66021;BME280;52789;59.980;30.346;2023-02-14T05:06:54;64449.00;;;-142.41;100.00
66021;BME280;52789;59.980;30.346;2023-02-14T05:09:19;64449.00;;;-142.41;100.00
66021;BME280;52789;59.980;30.346;2023-02-14T05:11:45;64449.00;;;-142.41;100.00
66021;BME280;52789;59.980;30.346;2023-02-14T05:14:10;64449.00;;;-142.41;100.00
66021;BME280;52789;59.980;30.346;2023-02-14T05:16:36;64449.00;;;-142.41;100.00
66021;BME280;52789;59.980;30.346;2023-02-14T05:19:02;64449.00;;;-142.41;100.00
66021;BME280;52789;59.980;30.346;2023-02-14T05:21:27;64449.00;;;-142.41;100.00
66021;BME280;52789;59.980;30.346;2023-02-14T05:23:57;64449.00;;;-142.41;100.00
66021;BME280;52789;59.980;30.346;2023-02-14T05:26:22;64449.00;;;-142.41;100.00
66021;BME280;52789;59.980;30.346;2023-02-14T05:28:52;64449.00;;;-142.41;100.00
66021;BME280;52789;59.980;30.346;2023-02-14T05:31:17;64449.00;;;-142.41;100.00
66021;BME280;52789;59.980;30.346;2023-02-14T05:33:42;64449.00;;;-142.41;100.00
66021;BME280;52789;59.980;30.346;2023-02-14T05:36:08;64449.00;;;-142.41;100.00
66021;BME280;52789;59.980;30.346;2023-02-14T05:38:34;64449.00;;;-142.41;100.00
66021;BME280;52789;59.980;30.346;2023-02-14T05:40:59;64449.00;;;-142.41;100.00
66021;BME280;52789;59.980;30.346;2023-02-14T05:43:28;64449.00;;;-142.41;100.00
66021;BME280;52789;59.980;30.346;2023-02-14T05:45:54;64449.00;;;-142.41;100.00
66021;BME280;52789;59.980;30.346;2023-02-14T05:48:23;64449.00;;;-142.41;100.00
66021;BME280;52789;59.980;30.346;2023-02-14T05:50:48;64449.00;;;-142.41;100.00
66021;BME280;52789;59.980;30.346;2023-02-14T05:53:14;64449.00;;;-142.41;100.00
66021;BME280;52789;59.980;30.346;2023-02-14T05:55:39;64449.00;;;-142.41;100.00
66021;BME280;52789;59.980;30.346;2023-02-14T05:58:05;64449.00;;;-142.41;100.00
66021;BME280;52789;59.980;30.346;2023-02-14T06:00:30;64449.00;;;-142.41;100.00
66021;BME280;52789;59.980;30.346;2023-02-14T06:02:56;64449.00;;;-142.41;100.00
66021;BME280;52789;59.980;30.346;2023-02-14T06:05:21;64449.00;;;-142.41;100.00
66021;BME280;52789;59.980;30.346;2023-02-14T06:07:47;64449.00;;;-142.41;100.00
66021;BME280;52789;59.980;30.346;2023-02-14T06:10:17;64449.00;;;-142.41;100.00
66021;BME280;52789;59.980;30.346;2023-02-14T06:12:43;64449.00;;;-142.41;100.00
66021;BME280;52789;59.980;30.346;2023-02-14T06:15:08;64449.00;;;-142.41;100.00
66021;BME280;52789;59.980;30.346;2023-02-14T06:17:36;64449.00;;;-142.41;100.00
66021;BME280;52789;59.980;30.346;2023-02-14T06:20:02;64449.00;;;-142.41;100.00
66021;BME280;52789;59.980;30.346;2023-02-14T06:22:28;64449.00;;;-142.41;100.00
66021;BME280;52789;59.980;30.346;2023-02-14T06:24:53;64449.00;;;-142.41;100.00
66021;BME280;52789;59.980;30.346;2023-02-14T06:27:18;64449.00;;;-142.41;100.00
66021;BME280;52789;59.980;30.346;2023-02-14T06:29:44;64449.00;;;-142.41;100.00
66021;BME280;52789;59.980;30.346;2023-02-14T06:32:12;64449.00;;;-142.41;100.00
66021;BME280;52789;59.980;30.346;2023-02-14T06:34:37;64449.00;;;-142.41;100.00
66021;BME280;52789;59.980;30.346;2023-02-14T06:37:05;64449.00;;;-142.41;100.00
66021;BME280;52789;59.980;30.346;2023-02-14T06:39:30;64449.00;;;-142.41;100.00
66021;BME280;52789;59.980;30.346;2023-02-14T06:41:55;64449.00;;;-142.41;100.00
66021;BME280;52789;59.980;30.346;2023-02-14T06:44:21;64449.00;;;-142.41;100.00
66021;BME280;52789;59.980;30.346;2023-02-14T06:46:46;64449.00;;;-142.41;100.00
66021;BME280;52789;59.980;30.346;2023-02-14T06:49:13;64449.00;;;-142.41;100.00
66021;BME280;52789;59.980;30.346;2023-02-14T06:51:38;64449.00;;;-142.41;100.00
66021;BME280;52789;59.980;30.346;2023-02-14T06:54:04;64449.00;;;-142.41;100.00
66021;BME280;52789;59.980;30.346;2023-02-14T06:56:29;64449.00;;;-142.41;100.00
66021;BME280;52789;59.980;30.346;2023-02-14T06:58:54;64449.00;;;-142.41;100.00
66021;BME280;52789;59.980;30.346;2023-02-14T07:01:20;64449.00;;;-142.41;100.00
66021;BME280;52789;59.980;30.346;2023-02-14T07:03:45;64449.00;;;-142.41;100.00
66021;BME280;52789;59.980;30.346;2023-02-14T07:06:10;64449.00;;;-142.41;100.00
66021;BME280;52789;59.980;30.346;2023-02-14T07:08:36;64449.00;;;-142.41;100.00
66021;BME280;52789;59.980;30.346;2023-02-14T07:11:01;64449.00;;;-142.41;100.00
66021;BME280;52789;59.980;30.346;2023-02-14T07:13:27;64449.00;;;-142.41;100.00
66021;BME280;52789;59.980;30.346;2023-02-14T07:15:52;64449.00;;;-142.41;100.00
66021;BME280;52789;59.980;30.346;2023-02-14T07:18:17;64449.00;;;-142.41;100.00
66021;BME280;52789;59.980;30.346;2023-02-14T07:20:43;64449.00;;;-142.41;100.00
66021;BME280;52789;59.980;30.346;2023-02-14T07:23:09;64449.00;;;-142.41;100.00
66021;BME280;52789;59.980;30.346;2023-02-14T07:25:36;64449.00;;;-142.41;100.00
66021;BME280;52789;59.980;30.346;2023-02-14T07:28:10;64449.00;;;-142.41;100.00
66021;BME280;52789;59.980;30.346;2023-02-14T07:30:35;64449.00;;;-142.41;100.00
66021;BME280;52789;59.980;30.346;2023-02-14T07:33:01;64449.00;;;-142.41;100.00
66021;BME280;52789;59.980;30.346;2023-02-14T07:35:26;64449.00;;;-142.41;100.00
66021;BME280;52789;59.980;30.346;2023-02-14T07:37:51;64449.00;;;-142.41;100.00
66021;BME280;52789;59.980;30.346;2023-02-14T07:40:17;64449.00;;;-142.41;100.00
66021;BME280;52789;59.980;30.346;2023-02-14T07:42:44;64449.00;;;-142.41;100.00
66021;BME280;52789;59.980;30.346;2023-02-14T07:45:09;64449.00;;;-142.41;100.00
66021;BME280;52789;59.980;30.346;2023-02-14T07:47:35;64449.00;;;-142.41;100.00
66021;BME280;52789;59.980;30.346;2023-02-14T07:50:01;64449.00;;;-142.41;100.00
66021;BME280;52789;59.980;30.346;2023-02-14T07:52:26;64449.00;;;-142.41;100.00
66021;BME280;52789;59.980;30.346;2023-02-14T07:54:52;64449.00;;;-142.41;100.00
66021;BME280;52789;59.980;30.346;2023-02-14T07:57:17;64449.00;;;-142.41;100.00
66021;BME280;52789;59.980;30.346;2023-02-14T07:59:42;64449.00;;;-142.41;100.00
66021;BME280;52789;59.980;30.346;2023-02-14T08:02:08;64449.00;;;-142.41;100.00
66021;BME280;52789;59.980;30.346;2023-02-14T08:04:35;64449.00;;;-142.41;100.00
66021;BME280;52789;59.980;30.346;2023-02-14T08:07:00;64449.00;;;-142.41;100.00
66021;BME280;52789;59.980;30.346;2023-02-14T08:09:25;64449.00;;;-142.41;100.00
66021;BME280;52789;59.980;30.346;2023-02-14T08:11:51;64449.00;;;-142.41;100.00
66021;BME280;52789;59.980;30.346;2023-02-14T08:14:36;64449.00;;;-142.41;100.00
66021;BME280;52789;59.980;30.346;2023-02-14T08:17:02;64449.00;;;-142.41;100.00
66021;BME280;52789;59.980;30.346;2023-02-14T08:19:27;64449.00;;;-142.41;100.00
66021;BME280;52789;59.980;30.346;2023-02-14T08:21:53;64449.00;;;-142.41;100.00
66021;BME280;52789;59.980;30.346;2023-02-14T08:24:18;64449.00;;;-142.41;100.00
66021;BME280;52789;59.980;30.346;2023-02-14T08:26:46;64449.00;;;-142.41;100.00
66021;BME280;52789;59.980;30.346;2023-02-14T08:29:11;64449.00;;;-142.41;100.00
66021;BME280;52789;59.980;30.346;2023-02-14T08:31:36;64449.00;;;-142.41;100.00
66021;BME280;52789;59.980;30.346;2023-02-14T08:34:04;64449.00;;;-142.41;100.00
66021;BME280;52789;59.980;30.346;2023-02-14T08:36:30;64449.00;;;-142.41;100.00
66021;BME280;52789;59.980;30.346;2023-02-14T08:38:56;64449.00;;;-142.41;100.00
66021;BME280;52789;59.980;30.346;2023-02-14T08:41:21;64449.00;;;-142.41;100.00
66021;BME280;52789;59.980;30.346;2023-02-14T08:43:47;64449.00;;;-142.41;100.00
66021;BME280;52789;59.980;30.346;2023-02-14T08:46:12;64449.00;;;-142.41;100.00
66021;BME280;52789;59.980;30.346;2023-02-14T08:48:39;64449.00;;;-142.41;100.00
66021;BME280;52789;59.980;30.346;2023-02-14T08:51:06;64449.00;;;-142.41;100.00
66021;BME280;52789;59.980;30.346;2023-02-14T08:53:31;64449.00;;;-142.41;100.00
66021;BME280;52789;59.980;30.346;2023-02-14T08:56:00;64449.00;;;-142.41;100.00
66021;BME280;52789;59.980;30.346;2023-02-14T08:58:26;64449.00;;;-142.41;100.00
66021;BME280;52789;59.980;30.346;2023-02-14T09:00:51;64449.00;;;-142.41;100.00
66021;BME280;52789;59.980;30.346;2023-02-14T09:03:16;64449.00;;;-142.41;100.00
66021;BME280;52789;59.980;30.346;2023-02-14T09:05:42;64449.00;;;-142.41;100.00
66021;BME280;52789;59.980;30.346;2023-02-14T09:08:07;64449.00;;;-142.41;100.00
66021;BME280;52789;59.980;30.346;2023-02-14T09:10:32;64449.00;;;-142.41;100.00
66021;BME280;52789;59.980;30.346;2023-02-14T09:12:58;64449.00;;;-142.41;100.00
66021;BME280;52789;59.980;30.346;2023-02-14T09:15:23;64449.00;;;-142.41;100.00
66021;BME280;52789;59.980;30.346;2023-02-14T09:17:51;64449.00;;;-142.41;100.00
66021;BME280;52789;59.980;30.346;2023-02-14T09:20:16;64449.00;;;-142.41;100.00
66021;BME280;52789;59.980;30.346;2023-02-14T09:22:42;64449.00;;;-142.41;100.00
66021;BME280;52789;59.980;30.346;2023-02-14T09:25:07;64449.00;;;-142.41;100.00
66021;BME280;52789;59.980;30.346;2023-02-14T09:27:33;64449.00;;;-142.41;100.00
66021;BME280;52789;59.980;30.346;2023-02-14T09:29:58;64449.00;;;-142.41;100.00
66021;BME280;52789;59.980;30.346;2023-02-14T09:32:24;64449.00;;;-142.41;100.00
66021;BME280;52789;59.980;30.346;2023-02-14T09:34:53;64449.00;;;-142.41;100.00
66021;BME280;52789;59.980;30.346;2023-02-14T09:37:37;64449.00;;;-142.41;100.00
66021;BME280;52789;59.980;30.346;2023-02-14T09:40:02;64449.00;;;-142.41;100.00
66021;BME280;52789;59.980;30.346;2023-02-14T09:45:16;64449.00;;;-142.41;100.00
66021;BME280;52789;59.980;30.346;2023-02-14T09:47:48;64449.00;;;-142.41;100.00
66021;BME280;52789;59.980;30.346;2023-02-14T09:50:21;64449.00;;;-142.41;100.00
66021;BME280;52789;59.980;30.346;2023-02-14T09:53:27;64449.00;;;-142.41;100.00
66021;BME280;52789;59.980;30.346;2023-02-14T10:03:44;64449.00;;;-142.41;100.00
66021;BME280;52789;59.980;30.346;2023-02-14T10:11:04;64449.00;;;-142.41;100.00
66021;BME280;52789;59.980;30.346;2023-02-14T10:13:34;64449.00;;;-142.41;100.00
66021;BME280;52789;59.980;30.346;2023-02-14T10:18:54;64449.00;;;-142.41;100.00
66021;BME280;52789;59.980;30.346;2023-02-14T10:21:23;64449.00;;;-142.41;100.00
66021;BME280;52789;59.980;30.346;2023-02-14T10:23:51;64449.00;;;-142.41;100.00
66021;BME280;52789;59.980;30.346;2023-02-14T10:26:26;64449.00;;;-142.41;100.00
66021;BME280;52789;59.980;30.346;2023-02-14T10:28:54;64449.00;;;-142.41;100.00
66021;BME280;52789;59.980;30.346;2023-02-14T10:31:24;64449.00;;;-142.41;100.00
66021;BME280;52789;59.980;30.346;2023-02-14T10:33:54;64449.00;;;-142.41;100.00
66021;BME280;52789;59.980;30.346;2023-02-14T10:36:24;64449.00;;;-142.41;100.00
66021;BME280;52789;59.980;30.346;2023-02-14T10:39:00;64449.00;;;-142.41;100.00
66021;BME280;52789;59.980;30.346;2023-02-14T10:41:41;64449.00;;;-142.41;100.00
66021;BME280;52789;59.980;30.346;2023-02-14T10:51:51;64449.00;;;-142.41;100.00
66021;BME280;52789;59.980;30.346;2023-02-14T10:56:57;64449.00;;;-142.41;100.00
66021;BME280;52789;59.980;30.346;2023-02-14T10:59:26;64449.00;;;-142.41;100.00
66021;BME280;52789;59.980;30.346;2023-02-14T11:01:52;64449.00;;;-142.41;100.00
66021;BME280;52789;59.980;30.346;2023-02-14T11:04:20;64449.00;;;-142.41;100.00
66021;BME280;52789;59.980;30.346;2023-02-14T11:06:47;64449.00;;;-142.41;100.00
66021;BME280;52789;59.980;30.346;2023-02-14T11:09:13;64449.00;;;-142.41;100.00
66021;BME280;52789;59.980;30.346;2023-02-14T11:14:34;64449.00;;;-142.41;100.00
66021;BME280;52789;59.980;30.346;2023-02-14T11:17:45;64449.00;;;-142.41;100.00
66021;BME280;52789;59.980;30.346;2023-02-14T11:20:19;64449.00;;;-142.41;100.00
66021;BME280;52789;59.980;30.346;2023-02-14T11:22:33;64449.00;;;-142.41;100.00
66021;BME280;52789;59.980;30.346;2023-02-14T11:25:18;64449.00;;;-142.41;100.00
66021;BME280;52789;59.980;30.346;2023-02-14T11:27:45;64449.00;;;-142.41;100.00
66021;BME280;52789;59.980;30.346;2023-02-14T11:30:33;64449.00;;;-142.41;100.00
66021;BME280;52789;59.980;30.346;2023-02-14T11:32:59;64449.00;;;-142.41;100.00
66021;BME280;52789;59.980;30.346;2023-02-14T11:35:26;64449.00;;;-142.41;100.00
66021;BME280;52789;59.980;30.346;2023-02-14T11:37:58;64449.00;;;-142.41;100.00
66021;BME280;52789;59.980;30.346;2023-02-14T11:40:28;64449.00;;;-142.41;100.00
66021;BME280;52789;59.980;30.346;2023-02-14T11:42:54;64449.00;;;-142.41;100.00
66021;BME280;52789;59.980;30.346;2023-02-14T11:48:14;64449.00;;;-142.41;100.00
66021;BME280;52789;59.980;30.346;2023-02-14T11:50:40;64449.00;;;-142.41;100.00
66021;BME280;52789;59.980;30.346;2023-02-14T11:53:12;64449.00;;;-142.41;100.00
66021;BME280;52789;59.980;30.346;2023-02-14T11:55:52;64449.00;;;-142.41;100.00
66021;BME280;52789;59.980;30.346;2023-02-14T12:04:05;64449.00;;;-142.41;100.00
66021;BME280;52789;59.980;30.346;2023-02-14T12:06:32;64449.00;;;-142.41;100.00
66021;BME280;52789;59.980;30.346;2023-02-14T12:11:53;64449.00;;;-142.41;100.00
66021;BME280;52789;59.980;30.346;2023-02-14T12:14:19;64449.00;;;-142.41;100.00
66021;BME280;52789;59.980;30.346;2023-02-14T12:16:47;64449.00;;;-142.41;100.00
66021;BME280;52789;59.980;30.346;2023-02-14T12:19:16;64449.00;;;-142.41;100.00
66021;BME280;52789;59.980;30.346;2023-02-14T12:22:03;64449.00;;;-142.41;100.00
66021;BME280;52789;59.980;30.346;2023-02-14T12:24:32;64449.00;;;-142.41;100.00
66021;BME280;52789;59.980;30.346;2023-02-14T12:27:46;64449.00;;;-142.41;100.00
66021;BME280;52789;59.980;30.346;2023-02-14T12:32:21;64449.00;;;-142.41;100.00
66021;BME280;52789;59.980;30.346;2023-02-14T12:34:48;64449.00;;;-142.41;100.00
66021;BME280;52789;59.980;30.346;2023-02-14T12:47:39;64449.00;;;-142.41;100.00
66021;BME280;52789;59.980;30.346;2023-02-14T12:55:28;64449.00;;;-142.41;100.00
66021;BME280;52789;59.980;30.346;2023-02-14T12:58:34;64449.00;;;-142.41;100.00
66021;BME280;52789;59.980;30.346;2023-02-14T13:08:33;64449.00;;;-142.41;100.00
66021;BME280;52789;59.980;30.346;2023-02-14T13:13:53;64449.00;;;-142.41;100.00
66021;BME280;52789;59.980;30.346;2023-02-14T13:16:22;64449.00;;;-142.41;100.00
66021;BME280;52789;59.980;30.346;2023-02-14T13:21:34;64449.00;;;-142.41;100.00
66021;BME280;52789;59.980;30.346;2023-02-14T13:26:47;64449.00;;;-142.41;100.00
66021;BME280;52789;59.980;30.346;2023-02-14T13:30:03;64449.00;;;-142.41;100.00
66021;BME280;52789;59.980;30.346;2023-02-14T13:32:09;64449.00;;;-142.41;100.00
66021;BME280;52789;59.980;30.346;2023-02-14T13:34:40;64449.00;;;-142.41;100.00
66021;BME280;52789;59.980;30.346;2023-02-14T13:37:09;64449.00;;;-142.41;100.00
66021;BME280;52789;59.980;30.346;2023-02-14T13:39:36;64449.00;;;-142.41;100.00
66021;BME280;52789;59.980;30.346;2023-02-14T13:42:04;64449.00;;;-142.41;100.00
66021;BME280;52789;59.980;30.346;2023-02-14T13:44:42;64449.00;;;-142.41;100.00
66021;BME280;52789;59.980;30.346;2023-02-14T13:47:15;64449.00;;;-142.41;100.00
66021;BME280;52789;59.980;30.346;2023-02-14T13:49:45;64449.00;;;-142.41;100.00
66021;BME280;52789;59.980;30.346;2023-02-14T13:52:11;64449.00;;;-142.41;100.00
66021;BME280;52789;59.980;30.346;2023-02-14T13:54:45;64449.00;;;-142.41;100.00
66021;BME280;52789;59.980;30.346;2023-02-14T14:02:49;64449.00;;;-142.41;100.00
66021;BME280;52789;59.980;30.346;2023-02-14T14:10:43;64449.00;;;-142.41;100.00
66021;BME280;52789;59.980;30.346;2023-02-14T14:13:10;64449.00;;;-142.41;100.00
66021;BME280;52789;59.980;30.346;2023-02-14T14:18:40;64449.00;;;-142.41;100.00
66021;BME280;52789;59.980;30.346;2023-02-14T14:21:13;64449.00;;;-142.41;100.00
66021;BME280;52789;59.980;30.346;2023-02-14T14:23:39;64449.00;;;-142.41;100.00
66021;BME280;52789;59.980;30.346;2023-02-14T14:28:54;64449.00;;;-142.41;100.00
66021;BME280;52789;59.980;30.346;2023-02-14T14:31:19;64449.00;;;-142.41;100.00
66021;BME280;52789;59.980;30.346;2023-02-14T14:33:45;64449.00;;;-142.41;100.00
66021;BME280;52789;59.980;30.346;2023-02-14T14:36:11;64449.00;;;-142.41;100.00
66021;BME280;52789;59.980;30.346;2023-02-14T14:38:49;64449.00;;;-142.41;100.00
66021;BME280;52789;59.980;30.346;2023-02-14T14:41:15;64449.00;;;-142.41;100.00
66021;BME280;52789;59.980;30.346;2023-02-14T14:43:40;64449.00;;;-142.41;100.00
66021;BME280;52789;59.980;30.346;2023-02-14T14:46:07;64449.00;;;-142.41;100.00
66021;BME280;52789;59.980;30.346;2023-02-14T14:48:45;64449.00;;;-142.41;100.00